Time;durP1;ratioP1;P1;durP2;ratioP2;P2;SDS_P1;SDS_P2;PMS_P1;PMS_P2;Temp;Humidity;BMP_temperature;BMP_pressure;BME280_temperature;BME280_humidity;BME280_pressure;Samples;Min_cycle;Max_cycle;Signal;HPM_P1;HPM_P2
2023/07/29 00:01:23;;;;;;;1.80;0.95;;;17.70;99.90;;;;;;5069786;28;20040;-49
2023/07/29 00:03:48;;;;;;;0.80;0.60;;;17.70;99.90;;;;;;5069940;28;20041;-51
2023/07/29 00:06:14;;;;;;;3.90;1.65;;;17.70;99.90;;;;;;5069576;28;20021;-51
2023/07/29 00:08:40;;;;;;;1.63;0.82;;;17.70;99.90;;;;;;5069972;28;20091;-44
2023/07/29 00:11:05;;;;;;;3.40;0.80;;;17.80;99.90;;;;;;5069748;28;20051;-46
2023/07/29 00:13:31;;;;;;;1.88;0.65;;;17.70;99.90;;;;;;5069580;28;20046;-53
2023/07/29 00:15:56;;;;;;;1.38;0.63;;;17.70;99.90;;;;;;5069754;28;20035;-48
2023/07/29 00:18:23;;;;;;;4.25;0.90;;;17.70;99.90;;;;;;5069243;28;20044;-53
2023/07/29 00:20:50;;;;;;;2.33;1.00;;;17.70;99.90;;;;;;5068283;28;20162;-52
2023/07/29 00:23:17;;;;;;;2.55;0.70;;;17.70;99.90;;;;;;5069166;28;20083;-46
2023/07/29 00:25:42;;;;;;;3.42;0.63;;;17.70;99.90;;;;;;5069733;28;20025;-47
2023/07/29 00:28:08;;;;;;;3.78;0.80;;;17.80;99.90;;;;;;5069313;28;20716;-47
2023/07/29 00:30:33;;;;;;;2.22;0.65;;;17.70;99.90;;;;;;5069068;28;20048;-48
2023/07/29 00:32:59;;;;;;;1.20;0.68;;;17.70;99.90;;;;;;5067995;28;20265;-45
2023/07/29 00:35:25;;;;;;;4.35;0.73;;;17.70;99.90;;;;;;5068927;28;20029;-49
2023/07/29 00:37:50;;;;;;;0.63;0.55;;;17.70;99.90;;;;;;5069198;28;20098;-46
2023/07/29 00:40:20;;;;;;;1.80;0.77;;;17.70;99.90;;;;;;5068816;28;20024;-47
2023/07/29 00:42:45;;;;;;;3.38;0.80;;;17.70;99.90;;;;;;5069317;28;20048;-47
2023/07/29 00:45:12;;;;;;;4.68;0.85;;;17.60;99.90;;;;;;5068658;28;20036;-52
2023/07/29 00:47:38;;;;;;;1.35;0.85;;;17.60;99.90;;;;;;5067450;28;20389;-49
2023/07/29 00:50:04;;;;;;;2.95;0.90;;;17.60;99.90;;;;;;5072085;28;20085;-50
2023/07/29 00:52:30;;;;;;;3.13;0.90;;;17.60;99.90;;;;;;5072643;28;20012;-45
2023/07/29 00:54:55;;;;;;;3.00;0.77;;;17.60;99.90;;;;;;5072577;28;20656;-47
2023/07/29 00:57:23;;;;;;;6.13;1.10;;;17.60;99.90;;;;;;5072560;28;20108;-53
2023/07/29 00:59:49;;;;;;;4.03;1.30;;;17.50;99.90;;;;;;5071994;28;20510;-47
2023/07/29 01:02:14;;;;;;;2.88;0.80;;;17.50;99.90;;;;;;5072141;28;20071;-53
2023/07/29 01:04:40;;;;;;;2.58;0.85;;;17.40;99.90;;;;;;5072608;28;20381;-48
2023/07/29 01:07:44;;;;;;;3.10;1.00;;;17.40;99.90;;;;;;5072593;28;20024;-52
2023/07/29 01:10:42;;;;;;;3.25;0.82;;;17.30;99.90;;;;;;5071227;28;20074;-51
2023/07/29 01:13:22;;;;;;;3.58;0.82;;;17.40;99.90;;;;;;5053096;28;20041;-48
2023/07/29 01:15:58;;;;;;;2.97;1.00;;;17.30;99.90;;;;;;5072416;28;20020;-46
2023/07/29 01:18:28;;;;;;;5.30;0.95;;;17.30;99.90;;;;;;5072329;28;20029;-50
2023/07/29 01:20:58;;;;;;;3.17;1.00;;;17.30;99.90;;;;;;5072613;28;20030;-56
2023/07/29 01:23:30;;;;;;;3.05;1.02;;;17.30;99.90;;;;;;5072271;28;20090;-50
2023/07/29 01:25:56;;;;;;;1.83;1.10;;;17.30;99.90;;;;;;5072439;28;20025;-52
2023/07/29 01:28:22;;;;;;;2.45;1.08;;;17.30;99.90;;;;;;5072330;28;20052;-52
2023/07/29 01:30:51;;;;;;;3.83;1.10;;;17.30;99.90;;;;;;5072201;28;20025;-46
2023/07/29 01:33:42;;;;;;;2.65;1.45;;;17.30;99.90;;;;;;5072218;28;20432;-48
2023/07/29 01:36:15;;;;;;;3.33;1.38;;;17.30;99.90;;;;;;5065294;28;20103;-50
2023/07/29 01:38:43;;;;;;;5.10;1.13;;;17.30;99.90;;;;;;5070600;28;20409;-46
2023/07/29 01:41:10;;;;;;;5.80;1.33;;;17.30;99.90;;;;;;5072434;28;20040;-48
2023/07/29 01:43:42;;;;;;;1.73;0.90;;;17.30;99.90;;;;;;5072177;28;20060;-52
2023/07/29 01:46:12;;;;;;;2.88;1.23;;;17.30;99.90;;;;;;5071649;28;20020;-49
2023/07/29 01:48:38;;;;;;;2.58;0.77;;;17.30;99.90;;;;;;5072267;28;20081;-47
2023/07/29 01:51:04;;;;;;;2.45;1.10;;;17.30;99.90;;;;;;5072080;28;20112;-44
2023/07/29 01:53:30;;;;;;;2.80;1.13;;;17.20;99.90;;;;;;5072000;28;20021;-44
2023/07/29 01:55:57;;;;;;;4.85;1.23;;;17.20;99.90;;;;;;5071943;28;20343;-49
2023/07/29 01:58:22;;;;;;;3.80;1.15;;;17.20;99.90;;;;;;5071703;28;20035;-53
2023/07/29 02:00:48;;;;;;;3.35;1.10;;;17.20;99.90;;;;;;5070921;28;20119;-57
2023/07/29 02:03:14;;;;;;;1.52;0.88;;;17.20;99.90;;;;;;5072045;28;20111;-48
2023/07/29 02:05:40;;;;;;;2.60;1.10;;;17.10;99.90;;;;;;5071833;28;20036;-47
2023/07/29 02:08:05;;;;;;;5.00;1.55;;;17.10;99.90;;;;;;5071146;28;20469;-47
2023/07/29 02:10:31;;;;;;;2.60;1.10;;;17.10;99.90;;;;;;5071403;28;20021;-47
2023/07/29 02:12:57;;;;;;;3.13;1.25;;;17.20;99.90;;;;;;5071580;28;20024;-46
2023/07/29 02:15:23;;;;;;;3.88;1.10;;;17.20;99.90;;;;;;5071336;28;20078;-48
2023/07/29 02:17:50;;;;;;;3.50;1.55;;;17.20;99.90;;;;;;5071144;28;20028;-44
2023/07/29 02:20:16;;;;;;;4.32;1.48;;;17.20;99.90;;;;;;5071066;28;20055;-48
2023/07/29 02:22:42;;;;;;;2.95;1.17;;;17.20;99.90;;;;;;5071252;28;20060;-48
2023/07/29 02:25:08;;;;;;;3.70;1.17;;;17.20;99.90;;;;;;5071054;28;20485;-47
2023/07/29 02:27:33;;;;;;;3.20;1.38;;;17.20;99.90;;;;;;5069686;28;20099;-49
2023/07/29 02:29:59;;;;;;;4.78;1.40;;;17.20;99.90;;;;;;5071105;28;20025;-47
2023/07/29 02:32:25;;;;;;;5.25;1.30;;;17.20;99.90;;;;;;5071048;28;20047;-48
2023/07/29 02:34:50;;;;;;;4.07;1.10;;;17.30;99.90;;;;;;5071492;28;20051;-54
2023/07/29 02:37:16;;;;;;;3.03;1.20;;;17.30;99.90;;;;;;5071273;28;20404;-47
2023/07/29 02:39:42;;;;;;;3.63;1.20;;;17.30;99.90;;;;;;5071104;28;20512;-49
2023/07/29 02:42:08;;;;;;;4.35;1.17;;;17.30;99.90;;;;;;5070707;28;20044;-48
2023/07/29 02:44:33;;;;;;;5.65;1.60;;;17.30;99.90;;;;;;5069637;28;20452;-48
2023/07/29 02:46:59;;;;;;;3.13;1.05;;;17.30;99.90;;;;;;5070881;28;20020;-46
2023/07/29 02:49:24;;;;;;;2.47;1.30;;;17.30;99.90;;;;;;5070765;28;20027;-53
2023/07/29 02:51:50;;;;;;;4.22;1.35;;;17.30;99.90;;;;;;5070798;28;20021;-46
2023/07/29 02:54:16;;;;;;;3.70;1.48;;;17.30;99.90;;;;;;5070287;28;20430;-48
2023/07/29 02:56:41;;;;;;;4.43;1.52;;;17.30;99.90;;;;;;5070661;28;20025;-52
2023/07/29 02:59:07;;;;;;;4.07;1.42;;;17.30;99.90;;;;;;5069243;28;20020;-48
2023/07/29 03:01:32;;;;;;;3.97;1.65;;;17.30;99.90;;;;;;5070565;28;20021;-52
2023/07/29 03:03:58;;;;;;;4.10;1.20;;;17.20;99.90;;;;;;5070323;28;20043;-50
2023/07/29 03:06:24;;;;;;;2.63;1.33;;;17.20;99.90;;;;;;5070104;28;20044;-47
2023/07/29 03:08:49;;;;;;;4.50;1.30;;;17.20;99.90;;;;;;5069550;28;20024;-54
2023/07/29 03:11:16;;;;;;;4.05;1.48;;;17.20;99.90;;;;;;5070049;28;20037;-46
2023/07/29 03:13:42;;;;;;;5.25;1.83;;;17.20;99.90;;;;;;5070694;28;20021;-50
2023/07/29 03:16:16;;;;;;;6.70;1.35;;;17.20;99.90;;;;;;5070200;28;20028;-52
2023/07/29 03:18:43;;;;;;;3.47;1.60;;;17.20;99.90;;;;;;5069787;28;20389;-50
2023/07/29 03:21:09;;;;;;;7.95;1.92;;;17.20;99.90;;;;;;5070092;28;20088;-46
2023/07/29 03:23:35;;;;;;;4.07;1.50;;;17.20;99.90;;;;;;5069984;28;20040;-47
2023/07/29 03:26:04;;;;;;;3.30;1.10;;;17.20;99.90;;;;;;5069780;28;20115;-48
2023/07/29 03:28:33;;;;;;;5.40;1.47;;;17.20;99.90;;;;;;5070177;28;20071;-45
2023/07/29 03:30:59;;;;;;;5.75;1.33;;;17.20;99.90;;;;;;5069830;28;20029;-55
2023/07/29 03:33:25;;;;;;;4.10;1.05;;;17.20;99.90;;;;;;5069751;28;20036;-50
2023/07/29 03:35:52;;;;;;;3.50;1.58;;;17.20;99.90;;;;;;5069653;28;20031;-49
2023/07/29 03:38:17;;;;;;;5.65;1.52;;;17.20;99.90;;;;;;5069539;28;20025;-53
2023/07/29 03:40:43;;;;;;;2.83;1.20;;;17.20;99.90;;;;;;5068222;28;20489;-49
2023/07/29 03:43:09;;;;;;;7.88;1.50;;;17.20;99.90;;;;;;5069908;28;20078;-49
2023/07/29 03:45:35;;;;;;;7.82;1.95;;;17.10;99.90;;;;;;5069735;28;20038;-52
2023/07/29 03:48:02;;;;;;;5.03;1.50;;;17.20;99.90;;;;;;5069990;28;20074;-46
2023/07/29 03:50:29;;;;;;;3.90;1.40;;;17.20;99.90;;;;;;5069854;28;20107;-45
2023/07/29 03:52:55;;;;;;;2.60;1.00;;;17.20;99.90;;;;;;5069460;28;20051;-47
2023/07/29 03:55:20;;;;;;;4.57;1.80;;;17.10;99.90;;;;;;5069953;28;20461;-49
2023/07/29 03:57:46;;;;;;;5.25;1.23;;;17.10;99.90;;;;;;5069952;28;20043;-53
2023/07/29 04:00:12;;;;;;;3.00;1.08;;;17.10;99.90;;;;;;5079980;28;20016;-46
2023/07/29 04:02:38;;;;;;;3.38;1.40;;;17.10;99.90;;;;;;5075735;28;20409;-48
2023/07/29 04:05:06;;;;;;;1.83;0.95;;;17.10;99.90;;;;;;5088738;28;20036;-47
2023/07/29 04:07:32;;;;;;;1.67;0.90;;;17.10;99.90;;;;;;5088432;28;20099;-46
2023/07/29 04:09:57;;;;;;;2.03;1.05;;;17.10;99.90;;;;;;5089923;28;20107;-54
2023/07/29 04:12:23;;;;;;;2.15;1.15;;;17.00;99.90;;;;;;5089598;28;20035;-51
2023/07/29 04:14:49;;;;;;;2.92;1.02;;;17.00;99.90;;;;;;5088584;28;20119;-51
2023/07/29 04:17:15;;;;;;;2.42;1.23;;;17.00;99.90;;;;;;5089830;28;20046;-51
2023/07/29 04:19:40;;;;;;;3.10;1.17;;;17.00;99.90;;;;;;5089333;28;20027;-47
2023/07/29 04:22:06;;;;;;;3.90;1.13;;;17.00;99.90;;;;;;5089516;28;20039;-50
2023/07/29 04:24:32;;;;;;;3.45;1.48;;;17.00;99.90;;;;;;5091654;28;20024;-52
2023/07/29 04:26:57;;;;;;;2.83;1.30;;;17.00;99.90;;;;;;5093841;28;20012;-49
2023/07/29 04:29:23;;;;;;;2.22;0.95;;;17.00;99.90;;;;;;5093308;28;20169;-52
2023/07/29 04:31:50;;;;;;;3.40;1.25;;;17.00;99.90;;;;;;5093544;28;20044;-48
2023/07/29 04:34:16;;;;;;;5.35;1.55;;;17.00;99.90;;;;;;5093290;28;20492;-48
2023/07/29 04:36:42;;;;;;;2.83;1.00;;;17.00;99.90;;;;;;5093140;28;20024;-46
2023/07/29 04:39:08;;;;;;;6.38;1.50;;;17.10;99.90;;;;;;5093206;28;20043;-50
2023/07/29 04:41:33;;;;;;;9.40;1.55;;;17.00;99.90;;;;;;5093502;28;20043;-47
2023/07/29 04:43:59;;;;;;;4.85;1.25;;;17.00;99.90;;;;;;5083316;28;20036;-48
2023/07/29 04:46:24;;;;;;;3.22;1.10;;;17.00;99.90;;;;;;5072079;28;20504;-51
2023/07/29 04:48:50;;;;;;;4.20;1.42;;;17.10;99.90;;;;;;5072652;28;20032;-49
2023/07/29 04:51:16;;;;;;;6.03;1.90;;;17.00;99.90;;;;;;5072749;28;20040;-51
2023/07/29 04:53:41;;;;;;;3.47;1.35;;;16.90;99.90;;;;;;5072788;28;20513;-47
2023/07/29 04:56:07;;;;;;;2.50;1.10;;;16.90;99.90;;;;;;5072872;28;20034;-53
2023/07/29 04:58:35;;;;;;;5.82;1.75;;;17.00;99.90;;;;;;5072613;28;20021;-45
2023/07/29 05:01:01;;;;;;;2.22;1.17;;;16.90;99.90;;;;;;5072934;28;20057;-48
2023/07/29 05:03:27;;;;;;;2.15;1.17;;;16.90;99.90;;;;;;5072798;28;20115;-45
2023/07/29 05:05:54;;;;;;;3.55;1.60;;;16.80;99.90;;;;;;5072536;28;20055;-44
2023/07/29 05:08:20;;;;;;;2.25;1.30;;;16.80;99.90;;;;;;5085529;28;20481;-46
2023/07/29 05:10:49;;;;;;;2.80;1.50;;;16.90;99.90;;;;;;5090096;28;20108;-46
2023/07/29 05:13:15;;;;;;;2.38;1.20;;;16.90;99.90;;;;;;5080360;28;20151;-51
2023/07/29 05:15:41;;;;;;;2.95;1.10;;;16.80;99.90;;;;;;5070243;28;20445;-50
2023/07/29 05:18:06;;;;;;;3.28;1.55;;;16.80;99.90;;;;;;5072498;28;20060;-54
2023/07/29 05:20:32;;;;;;;2.88;1.20;;;16.80;99.90;;;;;;5068564;28;20025;-56
2023/07/29 05:22:58;;;;;;;2.33;1.30;;;16.80;99.90;;;;;;5071082;28;20021;-50
2023/07/29 05:25:23;;;;;;;3.47;1.40;;;16.80;99.90;;;;;;5072077;28;20046;-43
2023/07/29 05:27:49;;;;;;;3.13;1.50;;;16.80;99.90;;;;;;5072024;28;20025;-48
2023/07/29 05:30:14;;;;;;;5.00;1.42;;;16.90;99.90;;;;;;5072063;28;20042;-50
2023/07/29 05:32:40;;;;;;;2.50;1.58;;;16.90;99.90;;;;;;5069068;28;20064;-50
2023/07/29 05:35:06;;;;;;;2.20;1.20;;;16.90;99.90;;;;;;5071035;28;20075;-46
2023/07/29 05:37:32;;;;;;;3.38;1.25;;;16.90;99.90;;;;;;5071951;28;20101;-53
2023/07/29 05:39:58;;;;;;;2.75;1.40;;;16.90;99.90;;;;;;5072114;28;20096;-47
2023/07/29 05:42:23;;;;;;;2.83;1.40;;;17.00;99.90;;;;;;5071615;28;20104;-53
2023/07/29 05:44:49;;;;;;;4.90;1.48;;;16.90;99.90;;;;;;5071984;28;20035;-51
2023/07/29 05:47:14;;;;;;;2.85;1.35;;;16.90;99.90;;;;;;5071647;28;20051;-46
2023/07/29 05:49:40;;;;;;;1.83;1.15;;;16.90;99.90;;;;;;5066397;28;20104;-46
2023/07/29 05:52:06;;;;;;;3.65;1.55;;;17.10;99.90;;;;;;5068081;28;20052;-48
2023/07/29 05:54:31;;;;;;;3.80;1.33;;;17.00;99.90;;;;;;5070129;28;20114;-45
2023/07/29 05:56:57;;;;;;;3.88;1.60;;;17.00;99.90;;;;;;5059226;28;20049;-43
2023/07/29 05:59:22;;;;;;;4.97;1.42;;;17.00;99.90;;;;;;5071876;28;20032;-47
2023/07/29 06:01:48;;;;;;;3.63;1.40;;;17.00;99.90;;;;;;5071148;28;20039;-51
2023/07/29 06:04:14;;;;;;;3.38;1.25;;;17.10;99.90;;;;;;5071500;28;20036;-49
2023/07/29 06:06:39;;;;;;;4.95;1.50;;;17.10;99.90;;;;;;5069684;28;20016;-50
2023/07/29 06:09:05;;;;;;;3.60;1.10;;;17.20;99.90;;;;;;5090436;28;20150;-46
2023/07/29 06:11:30;;;;;;;1.98;1.10;;;17.20;99.90;;;;;;5088956;28;20043;-50
2023/07/29 06:13:56;;;;;;;2.83;1.35;;;17.30;99.90;;;;;;5062683;28;20516;-51
2023/07/29 06:16:22;;;;;;;2.63;1.23;;;17.40;99.90;;;;;;5061371;28;20031;-46
2023/07/29 06:18:47;;;;;;;4.93;1.50;;;17.40;99.90;;;;;;5069969;28;20134;-46
2023/07/29 06:21:16;;;;;;;1.88;1.25;;;17.40;99.90;;;;;;5057795;28;20418;-43
2023/07/29 06:23:43;;;;;;;2.45;1.17;;;17.50;99.90;;;;;;5068620;28;20072;-50
2023/07/29 06:26:09;;;;;;;2.25;1.13;;;17.50;99.90;;;;;;5069115;28;20027;-48
2023/07/29 06:28:34;;;;;;;2.78;1.30;;;17.50;99.90;;;;;;5069268;28;20099;-55
2023/07/29 06:31:00;;;;;;;4.07;1.20;;;17.50;99.90;;;;;;5067988;28;20052;-47
2023/07/29 06:33:26;;;;;;;3.38;1.20;;;17.50;99.90;;;;;;5069119;28;20092;-46
2023/07/29 06:35:52;;;;;;;4.35;1.40;;;17.50;99.90;;;;;;5069220;28;20034;-43
2023/07/29 06:38:21;;;;;;;3.50;1.40;;;17.40;99.90;;;;;;5068977;28;20086;-49
2023/07/29 06:40:50;;;;;;;3.38;1.20;;;17.40;99.90;;;;;;5067332;28;20503;-52
2023/07/29 06:43:16;;;;;;;3.40;1.05;;;17.50;99.90;;;;;;5067433;28;20021;-46
2023/07/29 06:45:42;;;;;;;6.03;1.45;;;17.60;99.90;;;;;;5067806;28;20086;-48
2023/07/29 06:48:08;;;;;;;4.43;1.40;;;17.60;99.90;;;;;;5066889;28;20428;-46
2023/07/29 06:50:33;;;;;;;4.60;1.60;;;17.70;99.90;;;;;;5067461;28;20052;-48
2023/07/29 06:52:59;;;;;;;3.03;1.40;;;17.90;99.90;;;;;;5068525;28;20030;-54
2023/07/29 06:55:24;;;;;;;3.28;1.60;;;17.90;99.90;;;;;;5070290;28;20025;-50
2023/07/29 06:57:50;;;;;;;2.35;1.38;;;18.00;99.90;;;;;;5070375;28;20035;-47
2023/07/29 07:00:16;;;;;;;4.20;1.77;;;18.00;99.90;;;;;;5070516;28;20047;-46
2023/07/29 07:02:42;;;;;;;3.42;1.40;;;18.00;99.90;;;;;;5070557;28;20031;-50
2023/07/29 07:05:07;;;;;;;2.53;1.50;;;18.10;99.90;;;;;;5070170;28;20032;-50
2023/07/29 07:07:33;;;;;;;2.42;1.25;;;18.20;99.90;;;;;;5077019;28;20088;-47
2023/07/29 07:09:59;;;;;;;2.45;1.25;;;18.20;99.90;;;;;;5090791;28;20031;-48
2023/07/29 07:12:24;;;;;;;6.20;1.30;;;18.30;99.90;;;;;;5090614;28;20373;-48
2023/07/29 07:14:50;;;;;;;3.13;1.17;;;18.50;99.90;;;;;;5090728;28;20020;-45
2023/07/29 07:17:16;;;;;;;4.28;1.52;;;19.00;99.90;;;;;;5090382;28;20020;-51
2023/07/29 07:19:41;;;;;;;4.55;1.38;;;19.40;99.90;;;;;;5090658;28;20032;-49
2023/07/29 07:22:07;;;;;;;2.53;0.95;;;20.00;99.90;;;;;;5090362;28;20055;-53
2023/07/29 07:24:32;;;;;;;5.95;1.20;;;20.50;99.90;;;;;;5090262;28;20036;-51
2023/07/29 07:26:58;;;;;;;2.13;1.02;;;20.50;99.90;;;;;;5090565;28;20042;-50
2023/07/29 07:29:24;;;;;;;3.10;1.33;;;20.60;99.90;;;;;;5088907;28;20024;-44
2023/07/29 07:31:53;;;;;;;2.60;1.30;;;20.50;99.90;;;;;;5090186;28;20040;-48
2023/07/29 07:34:20;;;;;;;3.25;1.33;;;20.50;99.90;;;;;;5090372;28;20032;-47
2023/07/29 07:36:47;;;;;;;3.17;1.52;;;20.20;99.90;;;;;;5090435;28;20130;-55
2023/07/29 07:39:13;;;;;;;4.75;1.10;;;19.90;99.90;;;;;;5090168;28;20059;-54
2023/07/29 07:41:39;;;;;;;2.75;1.50;;;19.90;99.90;;;;;;5090383;28;20107;-51
2023/07/29 07:44:04;;;;;;;2.53;1.40;;;19.90;99.90;;;;;;5090233;28;20060;-51
2023/07/29 07:46:30;;;;;;;2.55;1.40;;;19.80;99.90;;;;;;5083195;28;20069;-53
2023/07/29 07:48:56;;;;;;;6.88;1.50;;;19.60;99.90;;;;;;5090268;28;20059;-54
2023/07/29 07:51:21;;;;;;;3.55;1.40;;;19.50;99.90;;;;;;5089834;28;20024;-44
2023/07/29 07:53:48;;;;;;;2.65;1.20;;;19.50;99.90;;;;;;5090146;28;20070;-51
2023/07/29 07:56:14;;;;;;;3.13;1.27;;;19.40;99.90;;;;;;5089718;28;20422;-52
2023/07/29 07:58:40;;;;;;;2.80;1.17;;;19.40;99.90;;;;;;5089249;28;20024;-51
2023/07/29 08:01:07;;;;;;;6.40;1.25;;;19.50;99.90;;;;;;5089941;28;20028;-47
2023/07/29 08:03:34;;;;;;;4.82;1.38;;;19.60;99.90;;;;;;5089954;28;20506;-52
2023/07/29 08:05:59;;;;;;;2.20;1.10;;;19.70;99.90;;;;;;5089911;28;20036;-52
2023/07/29 08:08:26;;;;;;;2.95;1.10;;;19.80;99.90;;;;;;5089865;28;20165;-53
2023/07/29 08:10:54;;;;;;;5.05;1.10;;;20.20;99.90;;;;;;5089858;28;20027;-50
2023/07/29 08:13:21;;;;;;;4.47;0.90;;;20.70;99.90;;;;;;5090019;28;20044;-45
2023/07/29 08:15:48;;;;;;;4.93;1.33;;;21.30;99.90;;;;;;5089986;28;20265;-45
2023/07/29 08:18:14;;;;;;;6.03;1.10;;;21.60;99.90;;;;;;5090161;28;20008;-47
2023/07/29 08:20:39;;;;;;;2.67;1.02;;;21.60;99.90;;;;;;5090111;28;20085;-47
2023/07/29 08:23:05;;;;;;;3.63;1.10;;;21.60;99.90;;;;;;5090232;28;20024;-47
2023/07/29 08:25:31;;;;;;;2.22;0.80;;;21.60;99.90;;;;;;5089747;28;20031;-44
2023/07/29 08:27:56;;;;;;;2.22;0.90;;;21.60;99.90;;;;;;5089723;28;20209;-44
2023/07/29 08:30:22;;;;;;;2.65;0.88;;;21.40;99.90;;;;;;5089867;28;20051;-55
2023/07/29 08:32:48;;;;;;;4.18;0.98;;;21.70;99.90;;;;;;5089585;28;20036;-50
2023/07/29 08:35:13;;;;;;;5.75;1.05;;;22.40;99.90;;;;;;5089999;28;20020;-46
2023/07/29 08:37:39;;;;;;;3.03;0.85;;;23.30;99.90;;;;;;5089754;28;20048;-46
2023/07/29 08:40:05;;;;;;;3.45;1.10;;;23.40;99.90;;;;;;5088716;28;20067;-49
2023/07/29 08:42:32;;;;;;;1.60;0.73;;;23.60;99.90;;;;;;5089712;28;20077;-52
2023/07/29 08:45:11;;;;;;;5.72;1.02;;;23.70;99.90;;;;;;5089762;28;20036;-52
2023/07/29 08:47:36;;;;;;;2.15;0.95;;;23.60;99.90;;;;;;5089838;28;20390;-47
2023/07/29 08:50:03;;;;;;;5.00;1.10;;;23.50;99.90;;;;;;5089715;28;20477;-47
2023/07/29 08:52:32;;;;;;;1.48;0.77;;;23.50;99.90;;;;;;5089787;28;20127;-48
2023/07/29 08:54:58;;;;;;;1.67;0.75;;;23.30;99.90;;;;;;5089604;28;20032;-49
2023/07/29 08:57:24;;;;;;;2.97;1.13;;;23.10;99.90;;;;;;5089644;28;20396;-46
2023/07/29 08:59:49;;;;;;;2.00;0.90;;;22.80;99.90;;;;;;5089541;28;20028;-51
2023/07/29 09:02:15;;;;;;;4.28;1.27;;;23.10;99.90;;;;;;5089718;28;20024;-49
2023/07/29 09:04:41;;;;;;;2.45;1.13;;;23.70;99.90;;;;;;5089531;28;20051;-47
2023/07/29 09:07:08;;;;;;;3.20;0.88;;;24.30;99.90;;;;;;5089693;28;21638;-49
2023/07/29 09:09:33;;;;;;;1.63;0.82;;;24.30;99.90;;;;;;5089982;28;20547;-47
2023/07/29 09:11:59;;;;;;;3.13;0.70;;;24.50;99.90;;;;;;5093083;28;20061;-45
2023/07/29 09:14:25;;;;;;;1.02;0.77;;;24.70;99.90;;;;;;5093297;28;20480;-45
2023/07/29 09:16:51;;;;;;;2.30;0.80;;;24.90;99.90;;;;;;5093289;28;20095;-44
2023/07/29 09:19:16;;;;;;;3.38;0.93;;;25.00;99.90;;;;;;5092990;28;20024;-46
2023/07/29 09:21:42;;;;;;;5.65;0.90;;;25.10;99.90;;;;;;5093254;28;20557;-44
2023/07/29 09:24:09;;;;;;;1.50;0.80;;;25.20;99.90;;;;;;5092894;28;20498;-47
2023/07/29 09:26:35;;;;;;;4.53;1.02;;;25.10;99.90;;;;;;5092968;28;20028;-45
2023/07/29 09:29:01;;;;;;;4.32;1.48;;;25.00;99.90;;;;;;5093078;28;20050;-49
2023/07/29 09:31:28;;;;;;;1.98;0.90;;;25.30;99.90;;;;;;5093065;28;20047;-55
2023/07/29 09:33:59;;;;;;;1.60;0.85;;;25.60;99.90;;;;;;5093082;28;20089;-45
2023/07/29 09:36:26;;;;;;;2.78;1.08;;;25.60;99.90;;;;;;5092792;28;20016;-46
2023/07/29 09:38:56;;;;;;;2.58;0.73;;;25.60;99.90;;;;;;5093042;28;20032;-48
2023/07/29 09:41:25;;;;;;;4.03;1.25;;;25.40;99.90;;;;;;5092475;28;20078;-44
2023/07/29 09:43:59;;;;;;;3.05;1.13;;;25.10;99.90;;;;;;5092743;28;20042;-47
2023/07/29 09:46:31;;;;;;;2.58;0.98;;;24.70;99.90;;;;;;5092601;28;20039;-46
2023/07/29 09:48:57;;;;;;;1.75;0.77;;;24.10;99.90;;;;;;5092705;28;20042;-53
2023/07/29 09:51:23;;;;;;;5.65;1.30;;;23.50;99.90;;;;;;5092637;28;20028;-50
2023/07/29 09:53:51;;;;;;;2.50;0.93;;;23.20;99.90;;;;;;5092684;28;20464;-47
2023/07/29 09:56:17;;;;;;;2.65;1.13;;;23.30;99.90;;;;;;5092627;28;20032;-53
2023/07/29 09:58:46;;;;;;;2.38;0.85;;;23.30;99.90;;;;;;5092176;28;20408;-44
2023/07/29 10:01:12;;;;;;;1.58;0.70;;;23.10;99.90;;;;;;5090964;28;20036;-48
2023/07/29 10:03:38;;;;;;;3.10;1.20;;;23.30;99.90;;;;;;5064077;28;20024;-46
2023/07/29 10:06:07;;;;;;;3.38;1.15;;;23.50;99.90;;;;;;5092284;28;20035;-45
2023/07/29 10:08:35;;;;;;;1.08;0.90;;;23.50;99.90;;;;;;5092114;28;20035;-44
2023/07/29 10:11:02;;;;;;;3.27;1.10;;;23.10;99.90;;;;;;5092169;28;20047;-45
2023/07/29 10:13:28;;;;;;;1.85;1.00;;;23.40;99.90;;;;;;5092216;28;20506;-44
2023/07/29 10:15:55;;;;;;;6.22;1.30;;;23.90;99.90;;;;;;5091974;28;20020;-48
2023/07/29 10:18:22;;;;;;;5.72;1.30;;;24.50;99.90;;;;;;5092018;28;20042;-44
2023/07/29 10:20:50;;;;;;;4.47;1.52;;;25.30;99.90;;;;;;5091656;28;20396;-49
2023/07/29 10:23:18;;;;;;;2.87;1.00;;;25.10;99.90;;;;;;5090138;28;20012;-45
2023/07/29 10:25:49;;;;;;;6.38;1.25;;;24.60;99.90;;;;;;5091723;28;20026;-45
2023/07/29 10:28:17;;;;;;;3.95;1.25;;;24.70;99.90;;;;;;5091934;28;20548;-46
2023/07/29 10:30:43;;;;;;;6.43;1.20;;;24.60;99.90;;;;;;5091612;28;20028;-47
2023/07/29 10:33:10;;;;;;;2.65;1.20;;;24.90;99.90;;;;;;5091525;28;20024;-44
2023/07/29 10:35:37;;;;;;;3.33;1.05;;;24.80;99.90;;;;;;5086064;28;20511;-45
2023/07/29 10:38:04;;;;;;;4.07;1.10;;;24.00;99.90;;;;;;5074166;28;20432;-46
2023/07/29 10:40:50;;;;;;;4.65;0.98;;;24.30;99.90;;;;;;5067904;28;20024;-51
2023/07/29 10:43:37;;;;;;;3.30;1.30;;;24.50;99.90;;;;;;5076661;28;20028;-50
2023/07/29 10:46:18;;;;;;;6.43;1.83;;;25.10;99.90;;;;;;5067290;28;20044;-45
2023/07/29 10:48:51;;;;;;;3.58;1.33;;;25.80;99.90;;;;;;5060367;28;20068;-50
2023/07/29 10:51:35;;;;;;;4.03;1.33;;;26.10;99.90;;;;;;5070707;28;20016;-48
2023/07/29 10:54:03;;;;;;;4.47;1.48;;;26.40;99.90;;;;;;5070724;28;20024;-48
2023/07/29 10:56:33;;;;;;;2.50;1.00;;;26.30;99.90;;;;;;5066046;28;20032;-45
2023/07/29 10:59:19;;;;;;;5.88;1.60;;;26.10;99.90;;;;;;5051919;28;20100;-50
2023/07/29 11:01:54;;;;;;;3.10;0.93;;;25.90;99.90;;;;;;5044570;28;20032;-47
2023/07/29 11:04:26;;;;;;;2.95;1.15;;;25.20;99.90;;;;;;5089890;28;20032;-50
2023/07/29 11:07:04;;;;;;;3.50;1.30;;;24.90;99.90;;;;;;5072770;28;20024;-48
2023/07/29 11:09:48;;;;;;;7.20;1.30;;;25.10;99.90;;;;;;5077685;28;20020;-46
2023/07/29 11:12:48;;;;;;;8.07;1.55;;;25.20;99.90;;;;;;5067505;28;20064;-46
2023/07/29 11:15:15;;;;;;;3.92;1.17;;;25.60;99.90;;;;;;5076398;28;20486;-48
2023/07/29 11:17:58;;;;;;;5.30;1.42;;;25.80;99.90;;;;;;5070123;28;20021;-47
2023/07/29 11:20:33;;;;;;;3.22;1.23;;;26.10;99.90;;;;;;5069897;28;20028;-47
2023/07/29 11:23:03;;;;;;;2.65;1.27;;;25.60;99.90;;;;;;5070295;28;20025;-52
2023/07/29 11:25:30;;;;;;;5.57;1.58;;;25.20;99.90;;;;;;5070861;28;20047;-48
2023/07/29 11:27:58;;;;;;;4.50;1.35;;;24.80;99.90;;;;;;5070526;28;20035;-47
2023/07/29 11:30:27;;;;;;;4.60;1.30;;;24.50;99.90;;;;;;5071076;28;20029;-47
2023/07/29 11:32:53;;;;;;;;;;;24.90;99.90;;;;;;5071134;28;20092;-46
2023/07/29 11:35:19;;;;;;;5.80;1.20;;;25.20;99.90;;;;;;5062731;28;19904;-44
2023/07/29 11:37:49;;;;;;;5.47;1.60;;;25.00;99.90;;;;;;5071012;28;20032;-47
2023/07/29 11:40:19;;;;;;;4.93;1.33;;;24.80;99.90;;;;;;5071003;28;20029;-44
2023/07/29 11:42:46;;;;;;;1.73;0.88;;;25.10;99.90;;;;;;5059052;28;20060;-46
2023/07/29 11:45:13;;;;;;;8.82;1.50;;;25.30;99.90;;;;;;5064865;28;20040;-43
2023/07/29 11:47:39;;;;;;;7.70;1.38;;;25.40;99.90;;;;;;5060992;28;20021;-44
2023/07/29 11:50:07;;;;;;;5.95;1.25;;;25.50;99.90;;;;;;5062722;28;20020;-43
2023/07/29 11:52:37;;;;;;;6.53;1.27;;;25.20;99.90;;;;;;5070598;28;20025;-44
2023/07/29 11:55:04;;;;;;;8.45;1.92;;;25.30;99.90;;;;;;5060119;28;20024;-45
2023/07/29 11:57:31;;;;;;;6.05;1.25;;;25.10;99.90;;;;;;5070565;28;20039;-43
2023/07/29 11:59:57;;;;;;;2.97;0.98;;;25.30;99.90;;;;;;5070610;28;20044;-44
2023/07/29 12:02:25;;;;;;;5.63;1.30;;;25.30;99.90;;;;;;5070316;28;20147;-45
2023/07/29 12:04:52;;;;;;;5.07;1.42;;;25.40;99.90;;;;;;5070152;28;20037;-44
2023/07/29 12:07:18;;;;;;;3.83;1.10;;;25.50;99.90;;;;;;5075015;28;20020;-45
2023/07/29 12:09:45;;;;;;;5.30;1.27;;;25.40;99.90;;;;;;5072055;28;20032;-45
2023/07/29 12:12:11;;;;;;;6.07;1.38;;;25.30;99.90;;;;;;5070547;28;20035;-47
2023/07/29 12:14:37;;;;;;;4.43;1.58;;;25.10;99.90;;;;;;5070892;28;20123;-43
2023/07/29 12:17:05;;;;;;;7.20;1.48;;;24.80;99.90;;;;;;5070491;28;20044;-45
2023/07/29 12:19:41;;;;;;;4.23;1.00;;;24.70;99.90;;;;;;5070723;28;20028;-43
2023/07/29 12:22:09;;;;;;;2.85;1.20;;;24.80;99.90;;;;;;5070457;28;20033;-45
2023/07/29 12:24:37;;;;;;;12.98;1.40;;;24.80;99.90;;;;;;5070245;28;20037;-47
2023/07/29 12:27:03;;;;;;;3.00;1.08;;;24.90;99.90;;;;;;5070461;28;20115;-47
2023/07/29 12:29:29;;;;;;;2.67;1.17;;;24.80;99.90;;;;;;5070134;28;20031;-49
2023/07/29 12:32:02;;;;;;;3.70;1.20;;;24.90;99.90;;;;;;5076172;28;20391;-45
2023/07/29 12:34:29;;;;;;;5.85;1.88;;;24.80;99.90;;;;;;5072728;28;20488;-44
2023/07/29 12:36:57;;;;;;;5.18;1.00;;;24.70;99.90;;;;;;5071020;28;20127;-47
2023/07/29 12:39:26;;;;;;;3.50;1.30;;;24.60;99.90;;;;;;5073998;28;20055;-45
2023/07/29 12:41:54;;;;;;;5.95;1.45;;;24.70;99.90;;;;;;5071511;28;20074;-45
2023/07/29 12:44:22;;;;;;;3.38;1.40;;;24.60;99.90;;;;;;5070535;28;20041;-47
2023/07/29 12:46:47;;;;;;;7.55;1.40;;;24.50;99.90;;;;;;5080609;28;20023;-44
2023/07/29 12:49:13;;;;;;;4.07;1.35;;;24.40;99.90;;;;;;5074074;28;20021;-45